sensor_id;sensor_type;location;lat;lon;timestamp;P1;durP1;ratioP1;P2;durP2;ratioP2
80119;SDS011;69425;55.040;82.918;2023-11-21T00:00:34;1.65;;;1.55;;
80119;SDS011;69425;55.040;82.918;2023-11-21T00:05:35;0.28;;;0.22;;
80119;SDS011;69425;55.040;82.918;2023-11-21T00:10:37;0.80;;;0.75;;
80119;SDS011;69425;55.040;82.918;2023-11-21T00:15:39;0.30;;;0.30;;
80119;SDS011;69425;55.040;82.918;2023-11-21T00:20:41;0.00;;;0.00;;
80119;SDS011;69425;55.040;82.918;2023-11-21T00:25:42;0.75;;;0.45;;
80119;SDS011;69425;55.040;82.918;2023-11-21T00:30:45;0.57;;;0.43;;
80119;SDS011;69425;55.040;82.918;2023-11-21T00:35:46;0.10;;;0.00;;
80119;SDS011;69425;55.040;82.918;2023-11-21T00:40:48;0.08;;;0.08;;
80119;SDS011;69425;55.040;82.918;2023-11-21T00:45:50;0.32;;;0.32;;
80119;SDS011;69425;55.040;82.918;2023-11-21T00:50:52;3.22;;;0.80;;
80119;SDS011;69425;55.040;82.918;2023-11-21T00:55:53;1.83;;;1.02;;
80119;SDS011;69425;55.040;82.918;2023-11-21T01:00:56;1.00;;;0.45;;
80119;SDS011;69425;55.040;82.918;2023-11-21T01:05:57;3.30;;;0.50;;
80119;SDS011;69425;55.040;82.918;2023-11-21T01:10:58;1.02;;;0.93;;
80119;SDS011;69425;55.040;82.918;2023-11-21T01:16:04;0.68;;;0.68;;
80119;SDS011;69425;55.040;82.918;2023-11-21T01:21:06;1.85;;;1.55;;
80119;SDS011;69425;55.040;82.918;2023-11-21T01:26:07;0.30;;;0.30;;
80119;SDS011;69425;55.040;82.918;2023-11-21T01:31:10;3.55;;;1.27;;
80119;SDS011;69425;55.040;82.918;2023-11-21T01:36:11;0.88;;;0.88;;
80119;SDS011;69425;55.040;82.918;2023-11-21T01:41:13;16.60;;;2.25;;
80119;SDS011;69425;55.040;82.918;2023-11-21T01:46:16;5.85;;;4.55;;
80119;SDS011;69425;55.040;82.918;2023-11-21T01:51:17;0.93;;;0.93;;
80119;SDS011;69425;55.040;82.918;2023-11-21T01:56:18;0.90;;;0.70;;
80119;SDS011;69425;55.040;82.918;2023-11-21T02:01:21;0.10;;;0.10;;
80119;SDS011;69425;55.040;82.918;2023-11-21T02:06:22;0.10;;;0.10;;
80119;SDS011;69425;55.040;82.918;2023-11-21T02:11:24;3.53;;;2.10;;
80119;SDS011;69425;55.040;82.918;2023-11-21T02:16:27;1.98;;;1.85;;
80119;SDS011;69425;55.040;82.918;2023-11-21T02:21:28;0.60;;;0.60;;
80119;SDS011;69425;55.040;82.918;2023-11-21T02:26:31;0.32;;;0.32;;
80119;SDS011;69425;55.040;82.918;2023-11-21T02:31:32;0.77;;;0.70;;
80119;SDS011;69425;55.040;82.918;2023-11-21T02:36:34;3.75;;;1.48;;
80119;SDS011;69425;55.040;82.918;2023-11-21T02:41:37;1.70;;;1.60;;
80119;SDS011;69425;55.040;82.918;2023-11-21T02:46:38;2.20;;;1.60;;
80119;SDS011;69425;55.040;82.918;2023-11-21T02:51:40;4.25;;;3.63;;
80119;SDS011;69425;55.040;82.918;2023-11-21T02:56:42;4.55;;;3.67;;
80119;SDS011;69425;55.040;82.918;2023-11-21T03:01:44;2.90;;;2.67;;
80119;SDS011;69425;55.040;82.918;2023-11-21T03:06:45;11.85;;;4.10;;
80119;SDS011;69425;55.040;82.918;2023-11-21T03:11:48;8.93;;;3.72;;
80119;SDS011;69425;55.040;82.918;2023-11-21T03:16:49;6.38;;;4.78;;
80119;SDS011;69425;55.040;82.918;2023-11-21T03:21:50;4.50;;;2.95;;
80119;SDS011;69425;55.040;82.918;2023-11-21T03:26:53;5.82;;;3.45;;
80119;SDS011;69425;55.040;82.918;2023-11-21T03:31:54;3.22;;;1.73;;
80119;SDS011;69425;55.040;82.918;2023-11-21T03:36:56;1.40;;;1.08;;
80119;SDS011;69425;55.040;82.918;2023-11-21T03:41:58;4.35;;;3.33;;
80119;SDS011;69425;55.040;82.918;2023-11-21T03:47:00;2.95;;;2.50;;
80119;SDS011;69425;55.040;82.918;2023-11-21T03:52:01;6.50;;;4.35;;
80119;SDS011;69425;55.040;82.918;2023-11-21T03:57:04;1.95;;;1.80;;
80119;SDS011;69425;55.040;82.918;2023-11-21T04:02:05;6.15;;;5.60;;
80119;SDS011;69425;55.040;82.918;2023-11-21T04:07:07;3.88;;;1.85;;
80119;SDS011;69425;55.040;82.918;2023-11-21T04:12:09;6.03;;;3.83;;
80119;SDS011;69425;55.040;82.918;2023-11-21T04:17:11;4.05;;;2.75;;
80119;SDS011;69425;55.040;82.918;2023-11-21T04:22:12;3.53;;;3.22;;
80119;SDS011;69425;55.040;82.918;2023-11-21T04:27:15;2.50;;;1.63;;
80119;SDS011;69425;55.040;82.918;2023-11-21T04:32:16;3.47;;;2.85;;
80119;SDS011;69425;55.040;82.918;2023-11-21T04:37:17;3.92;;;2.25;;
80119;SDS011;69425;55.040;82.918;2023-11-21T04:42:20;1.67;;;0.90;;
80119;SDS011;69425;55.040;82.918;2023-11-21T04:47:22;1.80;;;1.70;;
80119;SDS011;69425;55.040;82.918;2023-11-21T04:52:23;14.75;;;2.63;;
80119;SDS011;69425;55.040;82.918;2023-11-21T04:57:26;2.15;;;1.80;;
80119;SDS011;69425;55.040;82.918;2023-11-21T05:02:27;9.10;;;1.73;;
80119;SDS011;69425;55.040;82.918;2023-11-21T05:07:28;3.95;;;1.73;;
80119;SDS011;69425;55.040;82.918;2023-11-21T05:12:32;3.63;;;1.65;;
80119;SDS011;69425;55.040;82.918;2023-11-21T05:17:33;4.53;;;1.85;;
80119;SDS011;69425;55.040;82.918;2023-11-21T05:22:34;7.25;;;3.15;;
80119;SDS011;69425;55.040;82.918;2023-11-21T05:27:37;5.40;;;2.72;;
80119;SDS011;69425;55.040;82.918;2023-11-21T05:32:39;2.92;;;2.70;;
80119;SDS011;69425;55.040;82.918;2023-11-21T05:37:40;4.68;;;3.67;;
80119;SDS011;69425;55.040;82.918;2023-11-21T05:42:43;2.53;;;2.00;;
80119;SDS011;69425;55.040;82.918;2023-11-21T05:47:45;4.28;;;2.25;;
80119;SDS011;69425;55.040;82.918;2023-11-21T05:52:47;3.05;;;2.00;;
80119;SDS011;69425;55.040;82.918;2023-11-21T05:57:50;6.00;;;3.65;;
80119;SDS011;69425;55.040;82.918;2023-11-21T06:02:51;4.22;;;3.90;;
80119;SDS011;69425;55.040;82.918;2023-11-21T06:07:53;4.22;;;3.30;;
80119;SDS011;69425;55.040;82.918;2023-11-21T06:12:57;7.78;;;5.97;;
80119;SDS011;69425;55.040;82.918;2023-11-21T06:17:58;5.38;;;4.90;;
80119;SDS011;69425;55.040;82.918;2023-11-21T06:23:00;7.25;;;5.68;;
80119;SDS011;69425;55.040;82.918;2023-11-21T06:28:03;10.02;;;5.47;;
80119;SDS011;69425;55.040;82.918;2023-11-21T06:38:05;4.20;;;3.80;;
80119;SDS011;69425;55.040;82.918;2023-11-21T06:43:08;10.82;;;6.03;;
80119;SDS011;69425;55.040;82.918;2023-11-21T06:48:09;5.68;;;3.70;;
80119;SDS011;69425;55.040;82.918;2023-11-21T06:53:10;14.73;;;6.45;;
80119;SDS011;69425;55.040;82.918;2023-11-21T06:58:13;7.13;;;3.38;;
80119;SDS011;69425;55.040;82.918;2023-11-21T07:03:14;8.00;;;3.42;;
80119;SDS011;69425;55.040;82.918;2023-11-21T07:08:16;6.45;;;4.18;;
80119;SDS011;69425;55.040;82.918;2023-11-21T07:13:19;8.45;;;4.55;;
80119;SDS011;69425;55.040;82.918;2023-11-21T07:18:20;9.75;;;2.97;;
80119;SDS011;69425;55.040;82.918;2023-11-21T07:23:21;12.27;;;4.47;;
80119;SDS011;69425;55.040;82.918;2023-11-21T07:28:24;3.85;;;2.92;;
80119;SDS011;69425;55.040;82.918;2023-11-21T07:33:26;9.32;;;4.22;;
80119;SDS011;69425;55.040;82.918;2023-11-21T07:38:27;4.65;;;3.10;;
80119;SDS011;69425;55.040;82.918;2023-11-21T07:43:30;5.47;;;2.75;;
80119;SDS011;69425;55.040;82.918;2023-11-21T07:48:31;9.40;;;5.75;;
80119;SDS011;69425;55.040;82.918;2023-11-21T07:53:33;8.20;;;4.45;;
80119;SDS011;69425;55.040;82.918;2023-11-21T07:58:36;5.78;;;5.15;;
80119;SDS011;69425;55.040;82.918;2023-11-21T08:03:41;7.63;;;4.20;;
80119;SDS011;69425;55.040;82.918;2023-11-21T08:08:42;14.18;;;5.22;;
80119;SDS011;69425;55.040;82.918;2023-11-21T08:13:45;3.47;;;1.85;;
80119;SDS011;69425;55.040;82.918;2023-11-21T08:18:46;5.47;;;2.25;;
80119;SDS011;69425;55.040;82.918;2023-11-21T08:23:48;7.28;;;2.28;;
80119;SDS011;69425;55.040;82.918;2023-11-21T08:28:51;3.25;;;2.30;;
80119;SDS011;69425;55.040;82.918;2023-11-21T08:33:52;5.18;;;2.03;;
80119;SDS011;69425;55.040;82.918;2023-11-21T08:38:53;4.88;;;2.80;;
80119;SDS011;69425;55.040;82.918;2023-11-21T08:43:56;3.42;;;3.13;;
80119;SDS011;69425;55.040;82.918;2023-11-21T08:48:57;4.78;;;2.75;;
80119;SDS011;69425;55.040;82.918;2023-11-21T08:53:58;3.83;;;2.65;;
80119;SDS011;69425;55.040;82.918;2023-11-21T08:59:01;2.85;;;1.95;;
80119;SDS011;69425;55.040;82.918;2023-11-21T09:04:03;4.75;;;2.95;;
80119;SDS011;69425;55.040;82.918;2023-11-21T09:09:04;1.13;;;1.02;;
80119;SDS011;69425;55.040;82.918;2023-11-21T09:14:07;1.73;;;1.13;;
80119;SDS011;69425;55.040;82.918;2023-11-21T09:19:08;2.97;;;1.30;;
80119;SDS011;69425;55.040;82.918;2023-11-21T09:24:09;0.70;;;0.60;;
80119;SDS011;69425;55.040;82.918;2023-11-21T09:29:12;2.83;;;0.22;;
80119;SDS011;69425;55.040;82.918;2023-11-21T09:34:14;4.75;;;1.42;;
80119;SDS011;69425;55.040;82.918;2023-11-21T09:39:15;1.48;;;1.05;;
80119;SDS011;69425;55.040;82.918;2023-11-21T09:44:18;2.22;;;1.17;;
80119;SDS011;69425;55.040;82.918;2023-11-21T09:49:23;2.75;;;1.48;;
80119;SDS011;69425;55.040;82.918;2023-11-21T09:54:25;1.33;;;0.88;;
80119;SDS011;69425;55.040;82.918;2023-11-21T09:59:29;5.53;;;1.55;;
80119;SDS011;69425;55.040;82.918;2023-11-21T10:04:31;1.77;;;1.02;;
80119;SDS011;69425;55.040;82.918;2023-11-21T10:09:32;9.30;;;1.00;;
80119;SDS011;69425;55.040;82.918;2023-11-21T10:14:36;3.03;;;1.45;;
80119;SDS011;69425;55.040;82.918;2023-11-21T10:19:38;0.68;;;0.68;;
80119;SDS011;69425;55.040;82.918;2023-11-21T10:24:39;1.88;;;1.77;;
80119;SDS011;69425;55.040;82.918;2023-11-21T10:29:42;2.03;;;1.42;;
80119;SDS011;69425;55.040;82.918;2023-11-21T10:34:55;1.20;;;0.60;;
80119;SDS011;69425;55.040;82.918;2023-11-21T10:39:57;4.13;;;0.50;;
80119;SDS011;69425;55.040;82.918;2023-11-21T10:45:00;0.88;;;0.85;;
80119;SDS011;69425;55.040;82.918;2023-11-21T10:55:02;0.98;;;0.57;;
80119;SDS011;69425;55.040;82.918;2023-11-21T11:00:19;0.35;;;0.35;;
80119;SDS011;69425;55.040;82.918;2023-11-21T11:05:21;1.33;;;1.23;;
80119;SDS011;69425;55.040;82.918;2023-11-21T11:10:23;2.33;;;0.75;;
80119;SDS011;69425;55.040;82.918;2023-11-21T11:15:26;2.20;;;1.13;;
80119;SDS011;69425;55.040;82.918;2023-11-21T11:20:29;0.08;;;0.08;;
80119;SDS011;69425;55.040;82.918;2023-11-21T11:25:45;0.73;;;0.73;;
80119;SDS011;69425;55.040;82.918;2023-11-21T11:30:57;1.75;;;0.65;;
80119;SDS011;69425;55.040;82.918;2023-11-21T11:36:15;1.23;;;0.90;;
80119;SDS011;69425;55.040;82.918;2023-11-21T11:41:24;1.40;;;1.00;;
80119;SDS011;69425;55.040;82.918;2023-11-21T11:46:41;1.48;;;1.25;;
80119;SDS011;69425;55.040;82.918;2023-11-21T11:51:42;1.52;;;0.93;;
80119;SDS011;69425;55.040;82.918;2023-11-21T11:56:43;1.27;;;1.02;;
80119;SDS011;69425;55.040;82.918;2023-11-21T12:01:46;0.60;;;0.57;;
80119;SDS011;69425;55.040;82.918;2023-11-21T12:06:50;1.98;;;1.35;;
80119;SDS011;69425;55.040;82.918;2023-11-21T12:11:53;4.38;;;0.90;;
80119;SDS011;69425;55.040;82.918;2023-11-21T12:16:56;4.13;;;1.75;;
80119;SDS011;69425;55.040;82.918;2023-11-21T12:21:57;2.35;;;1.85;;
80119;SDS011;69425;55.040;82.918;2023-11-21T12:27:00;1.33;;;1.23;;
80119;SDS011;69425;55.040;82.918;2023-11-21T12:32:03;1.10;;;1.05;;
80119;SDS011;69425;55.040;82.918;2023-11-21T12:37:04;0.65;;;0.57;;
80119;SDS011;69425;55.040;82.918;2023-11-21T12:42:06;0.90;;;0.85;;
80119;SDS011;69425;55.040;82.918;2023-11-21T12:47:09;1.70;;;1.60;;
80119;SDS011;69425;55.040;82.918;2023-11-21T12:52:10;1.65;;;0.95;;
80119;SDS011;69425;55.040;82.918;2023-11-21T12:57:13;1.23;;;1.08;;
80119;SDS011;69425;55.040;82.918;2023-11-21T13:02:16;1.55;;;1.35;;
80119;SDS011;69425;55.040;82.918;2023-11-21T13:07:17;0.82;;;0.82;;
80119;SDS011;69425;55.040;82.918;2023-11-21T13:12:23;1.17;;;0.75;;
80119;SDS011;69425;55.040;82.918;2023-11-21T13:17:26;1.90;;;0.95;;
80119;SDS011;69425;55.040;82.918;2023-11-21T13:22:27;0.55;;;0.43;;
80119;SDS011;69425;55.040;82.918;2023-11-21T13:27:29;2.00;;;1.65;;
80119;SDS011;69425;55.040;82.918;2023-11-21T13:32:31;4.05;;;1.25;;
80119;SDS011;69425;55.040;82.918;2023-11-21T13:37:33;1.20;;;0.90;;
80119;SDS011;69425;55.040;82.918;2023-11-21T13:42:34;1.35;;;1.25;;
80119;SDS011;69425;55.040;82.918;2023-11-21T13:47:37;1.23;;;0.90;;
80119;SDS011;69425;55.040;82.918;2023-11-21T13:52:38;2.20;;;1.23;;
80119;SDS011;69425;55.040;82.918;2023-11-21T13:57:39;4.60;;;3.10;;
80119;SDS011;69425;55.040;82.918;2023-11-21T14:02:42;4.35;;;2.45;;
80119;SDS011;69425;55.040;82.918;2023-11-21T14:07:43;0.70;;;0.70;;
80119;SDS011;69425;55.040;82.918;2023-11-21T14:12:45;1.85;;;1.75;;
80119;SDS011;69425;55.040;82.918;2023-11-21T14:17:48;1.67;;;1.58;;
80119;SDS011;69425;55.040;82.918;2023-11-21T14:22:49;1.25;;;1.15;;
80119;SDS011;69425;55.040;82.918;2023-11-21T14:27:50;0.73;;;0.68;;
80119;SDS011;69425;55.040;82.918;2023-11-21T14:32:53;2.67;;;2.47;;
80119;SDS011;69425;55.040;82.918;2023-11-21T14:37:54;0.50;;;0.50;;
80119;SDS011;69425;55.040;82.918;2023-11-21T14:42:56;2.50;;;2.28;;
80119;SDS011;69425;55.040;82.918;2023-11-21T14:47:58;4.13;;;1.80;;
80119;SDS011;69425;55.040;82.918;2023-11-21T14:53:00;2.97;;;1.23;;
80119;SDS011;69425;55.040;82.918;2023-11-21T14:58:01;0.47;;;0.47;;
80119;SDS011;69425;55.040;82.918;2023-11-21T15:03:04;1.98;;;1.88;;
80119;SDS011;69425;55.040;82.918;2023-11-21T15:13:06;3.50;;;1.35;;
80119;SDS011;69425;55.040;82.918;2023-11-21T15:18:09;1.00;;;1.00;;
80119;SDS011;69425;55.040;82.918;2023-11-21T15:23:11;0.80;;;0.80;;
80119;SDS011;69425;55.040;82.918;2023-11-21T15:28:12;8.27;;;3.92;;
80119;SDS011;69425;55.040;82.918;2023-11-21T15:33:15;2.88;;;1.20;;
80119;SDS011;69425;55.040;82.918;2023-11-21T15:38:16;0.75;;;0.75;;
80119;SDS011;69425;55.040;82.918;2023-11-21T15:43:17;1.50;;;1.20;;
80119;SDS011;69425;55.040;82.918;2023-11-21T15:48:20;5.95;;;2.75;;
80119;SDS011;69425;55.040;82.918;2023-11-21T15:53:21;1.67;;;0.90;;
80119;SDS011;69425;55.040;82.918;2023-11-21T15:58:23;6.63;;;2.70;;
80119;SDS011;69425;55.040;82.918;2023-11-21T16:03:26;2.92;;;1.42;;
80119;SDS011;69425;55.040;82.918;2023-11-21T16:08:27;4.30;;;1.83;;
80119;SDS011;69425;55.040;82.918;2023-11-21T16:13:28;0.85;;;0.70;;
80119;SDS011;69425;55.040;82.918;2023-11-21T16:18:31;2.22;;;1.00;;
80119;SDS011;69425;55.040;82.918;2023-11-21T16:23:32;1.92;;;1.83;;
80119;SDS011;69425;55.040;82.918;2023-11-21T16:28:37;1.23;;;1.08;;
80119;SDS011;69425;55.040;82.918;2023-11-21T16:33:40;4.05;;;1.88;;
80119;SDS011;69425;55.040;82.918;2023-11-21T16:38:41;5.28;;;1.75;;
80119;SDS011;69425;55.040;82.918;2023-11-21T16:43:42;1.27;;;0.95;;
80119;SDS011;69425;55.040;82.918;2023-11-21T16:48:45;1.25;;;0.88;;
80119;SDS011;69425;55.040;82.918;2023-11-21T16:53:46;1.75;;;1.27;;
80119;SDS011;69425;55.040;82.918;2023-11-21T16:58:48;3.50;;;1.38;;
80119;SDS011;69425;55.040;82.918;2023-11-21T17:03:50;2.53;;;1.55;;
80119;SDS011;69425;55.040;82.918;2023-11-21T17:08:52;4.43;;;1.30;;
80119;SDS011;69425;55.040;82.918;2023-11-21T17:13:53;5.57;;;1.38;;
80119;SDS011;69425;55.040;82.918;2023-11-21T17:18:56;2.90;;;1.08;;
80119;SDS011;69425;55.040;82.918;2023-11-21T17:23:57;3.25;;;1.17;;
80119;SDS011;69425;55.040;82.918;2023-11-21T17:28:58;2.83;;;1.05;;
80119;SDS011;69425;55.040;82.918;2023-11-21T17:34:01;5.05;;;1.63;;
80119;SDS011;69425;55.040;82.918;2023-11-21T17:39:03;6.18;;;1.30;;
80119;SDS011;69425;55.040;82.918;2023-11-21T17:44:04;0.38;;;0.38;;
80119;SDS011;69425;55.040;82.918;2023-11-21T17:49:07;1.35;;;0.77;;
80119;SDS011;69425;55.040;82.918;2023-11-21T17:54:09;0.08;;;0.08;;
80119;SDS011;69425;55.040;82.918;2023-11-21T17:59:10;1.10;;;0.85;;
80119;SDS011;69425;55.040;82.918;2023-11-21T18:04:13;0.65;;;0.65;;
80119;SDS011;69425;55.040;82.918;2023-11-21T18:09:14;0.57;;;0.57;;
80119;SDS011;69425;55.040;82.918;2023-11-21T18:14:16;0.55;;;0.38;;
80119;SDS011;69425;55.040;82.918;2023-11-21T18:19:18;0.68;;;0.68;;
80119;SDS011;69425;55.040;82.918;2023-11-21T18:24:20;0.75;;;0.63;;
80119;SDS011;69425;55.040;82.918;2023-11-21T18:29:21;2.97;;;1.00;;
80119;SDS011;69425;55.040;82.918;2023-11-21T18:34:24;0.70;;;0.65;;
80119;SDS011;69425;55.040;82.918;2023-11-21T18:39:25;0.73;;;0.38;;
80119;SDS011;69425;55.040;82.918;2023-11-21T18:44:26;0.00;;;0.00;;
80119;SDS011;69425;55.040;82.918;2023-11-21T18:49:29;0.55;;;0.55;;
80119;SDS011;69425;55.040;82.918;2023-11-21T18:54:30;1.13;;;0.98;;
80119;SDS011;69425;55.040;82.918;2023-11-21T18:59:32;0.43;;;0.38;;
80119;SDS011;69425;55.040;82.918;2023-11-21T19:04:35;0.77;;;0.77;;
80119;SDS011;69425;55.040;82.918;2023-11-21T19:09:36;0.25;;;0.25;;
80119;SDS011;69425;55.040;82.918;2023-11-21T19:14:37;0.60;;;0.60;;
80119;SDS011;69425;55.040;82.918;2023-11-21T19:19:40;0.52;;;0.25;;
80119;SDS011;69425;55.040;82.918;2023-11-21T19:24:41;0.90;;;0.63;;
80119;SDS011;69425;55.040;82.918;2023-11-21T19:29:43;0.47;;;0.35;;
80119;SDS011;69425;55.040;82.918;2023-11-21T19:34:45;0.30;;;0.30;;
80119;SDS011;69425;55.040;82.918;2023-11-21T19:39:47;3.35;;;0.30;;
80119;SDS011;69425;55.040;82.918;2023-11-21T19:44:48;0.05;;;0.05;;
80119;SDS011;69425;55.040;82.918;2023-11-21T19:49:51;0.10;;;0.10;;
80119;SDS011;69425;55.040;82.918;2023-11-21T19:54:52;0.57;;;0.57;;
80119;SDS011;69425;55.040;82.918;2023-11-21T19:59:53;3.63;;;1.02;;
80119;SDS011;69425;55.040;82.918;2023-11-21T20:04:56;0.45;;;0.08;;
80119;SDS011;69425;55.040;82.918;2023-11-21T20:09:57;0.93;;;0.85;;
80119;SDS011;69425;55.040;82.918;2023-11-21T20:14:59;0.08;;;0.08;;
80119;SDS011;69425;55.040;82.918;2023-11-21T20:20:02;0.98;;;0.52;;
80119;SDS011;69425;55.040;82.918;2023-11-21T20:25:04;0.30;;;0.30;;
80119;SDS011;69425;55.040;82.918;2023-11-21T20:30:06;0.35;;;0.35;;
80119;SDS011;69425;55.040;82.918;2023-11-21T20:35:10;0.00;;;0.00;;
80119;SDS011;69425;55.040;82.918;2023-11-21T20:40:12;0.08;;;0.08;;
80119;SDS011;69425;55.040;82.918;2023-11-21T20:45:13;1.80;;;1.02;;
80119;SDS011;69425;55.040;82.918;2023-11-21T20:50:16;2.60;;;0.55;;
80119;SDS011;69425;55.040;82.918;2023-11-21T20:55:18;1.92;;;1.35;;
80119;SDS011;69425;55.040;82.918;2023-11-21T21:00:19;0.85;;;0.85;;
80119;SDS011;69425;55.040;82.918;2023-11-21T21:05:22;0.28;;;0.28;;
80119;SDS011;69425;55.040;82.918;2023-11-21T21:10:23;0.55;;;0.55;;
80119;SDS011;69425;55.040;82.918;2023-11-21T21:15:25;0.75;;;0.75;;
80119;SDS011;69425;55.040;82.918;2023-11-21T21:20:28;0.50;;;0.30;;
80119;SDS011;69425;55.040;82.918;2023-11-21T21:25:29;0.00;;;0.00;;
80119;SDS011;69425;55.040;82.918;2023-11-21T21:30:30;0.10;;;0.10;;
80119;SDS011;69425;55.040;82.918;2023-11-21T21:35:33;0.38;;;0.22;;
80119;SDS011;69425;55.040;82.918;2023-11-21T21:40:35;1.52;;;1.23;;
80119;SDS011;69425;55.040;82.918;2023-11-21T21:45:36;0.50;;;0.03;;
80119;SDS011;69425;55.040;82.918;2023-11-21T21:50:39;1.02;;;0.63;;
80119;SDS011;69425;55.040;82.918;2023-11-21T21:55:40;0.10;;;0.10;;
80119;SDS011;69425;55.040;82.918;2023-11-21T22:00:42;0.03;;;0.03;;
80119;SDS011;69425;55.040;82.918;2023-11-21T22:05:45;0.28;;;0.28;;
80119;SDS011;69425;55.040;82.918;2023-11-21T22:10:46;0.00;;;0.00;;
80119;SDS011;69425;55.040;82.918;2023-11-21T22:15:47;0.93;;;0.93;;
80119;SDS011;69425;55.040;82.918;2023-11-21T22:20:50;0.00;;;0.00;;
80119;SDS011;69425;55.040;82.918;2023-11-21T22:25:51;1.02;;;0.57;;
80119;SDS011;69425;55.040;82.918;2023-11-21T22:30:52;0.57;;;0.10;;
80119;SDS011;69425;55.040;82.918;2023-11-21T22:35:55;8.30;;;0.45;;
80119;SDS011;69425;55.040;82.918;2023-11-21T22:40:57;0.00;;;0.00;;
80119;SDS011;69425;55.040;82.918;2023-11-21T22:45:58;1.38;;;1.27;;
80119;SDS011;69425;55.040;82.918;2023-11-21T22:51:01;1.55;;;0.88;;
80119;SDS011;69425;55.040;82.918;2023-11-21T22:56:02;0.08;;;0.00;;
80119;SDS011;69425;55.040;82.918;2023-11-21T23:01:04;1.10;;;0.55;;
80119;SDS011;69425;55.040;82.918;2023-11-21T23:06:06;2.25;;;0.73;;
80119;SDS011;69425;55.040;82.918;2023-11-21T23:11:08;0.20;;;0.20;;
80119;SDS011;69425;55.040;82.918;2023-11-21T23:16:09;0.63;;;0.13;;
80119;SDS011;69425;55.040;82.918;2023-11-21T23:21:12;1.70;;;0.10;;
80119;SDS011;69425;55.040;82.918;2023-11-21T23:26:14;0.60;;;0.60;;
80119;SDS011;69425;55.040;82.918;2023-11-21T23:31:16;0.00;;;0.00;;
80119;SDS011;69425;55.040;82.918;2023-11-21T23:36:18;0.00;;;0.00;;
80119;SDS011;69425;55.040;82.918;2023-11-21T23:41:20;0.43;;;0.35;;
80119;SDS011;69425;55.040;82.918;2023-11-21T23:46:21;0.00;;;0.00;;
80119;SDS011;69425;55.040;82.918;2023-11-21T23:51:24;0.68;;;0.68;;
80119;SDS011;69425;55.040;82.918;2023-11-21T23:56:25;0.00;;;0.00;;
